sensor_id;sensor_type;location;lat;lon;timestamp;pressure;altitude;pressure_sealevel;temperature;humidity
69772;BME280;57046;45.988;18.664;2023-05-20T00:01:37;101031.09;;;16.59;90.93
69772;BME280;57046;45.988;18.664;2023-05-20T00:04:03;101019.38;;;16.59;90.63
69772;BME280;57046;45.988;18.664;2023-05-20T00:06:28;101019.38;;;16.59;90.15
69772;BME280;57046;45.988;18.664;2023-05-20T00:08:53;101022.97;;;16.51;90.66
69772;BME280;57046;45.988;18.664;2023-05-20T00:11:19;100996.66;;;16.30;90.31
69772;BME280;57046;45.988;18.664;2023-05-20T00:13:44;101019.94;;;16.52;90.10
69772;BME280;57046;45.988;18.664;2023-05-20T00:16:09;101021.16;;;16.55;89.95
69772;BME280;57046;45.988;18.664;2023-05-20T00:18:35;101022.03;;;16.31;91.41
69772;BME280;57046;45.988;18.664;2023-05-20T00:21:00;101017.25;;;16.28;91.84
69772;BME280;57046;45.988;18.664;2023-05-20T00:23:25;101018.53;;;16.18;92.36
69772;BME280;57046;45.988;18.664;2023-05-20T00:25:51;101016.28;;;16.08;92.91
69772;BME280;57046;45.988;18.664;2023-05-20T00:28:16;101015.91;;;16.10;92.22
69772;BME280;57046;45.988;18.664;2023-05-20T00:30:42;101020.56;;;16.09;91.64
69772;BME280;57046;45.988;18.664;2023-05-20T00:33:07;101022.19;;;15.98;92.47
69772;BME280;57046;45.988;18.664;2023-05-20T00:35:32;101016.75;;;15.98;91.71
69772;BME280;57046;45.988;18.664;2023-05-20T00:37:58;101007.97;;;15.93;92.61
69772;BME280;57046;45.988;18.664;2023-05-20T00:40:23;101014.59;;;15.92;93.08
69772;BME280;57046;45.988;18.664;2023-05-20T00:42:49;101007.53;;;15.91;92.45
69772;BME280;57046;45.988;18.664;2023-05-20T00:45:14;101020.59;;;15.85;93.29
69772;BME280;57046;45.988;18.664;2023-05-20T00:47:41;101013.44;;;15.81;93.32
69772;BME280;57046;45.988;18.664;2023-05-20T00:50:08;101011.53;;;15.81;93.67
69772;BME280;57046;45.988;18.664;2023-05-20T00:52:34;101016.28;;;15.84;93.36
69772;BME280;57046;45.988;18.664;2023-05-20T00:55:00;101013.56;;;15.84;93.12
69772;BME280;57046;45.988;18.664;2023-05-20T00:57:26;101011.41;;;15.77;94.49
69772;BME280;57046;45.988;18.664;2023-05-20T00:59:51;101007.66;;;15.70;95.01
69772;BME280;57046;45.988;18.664;2023-05-20T01:02:17;101001.63;;;15.64;94.92
69772;BME280;57046;45.988;18.664;2023-05-20T01:04:43;100990.28;;;15.50;96.37
69772;BME280;57046;45.988;18.664;2023-05-20T01:07:08;100994.78;;;15.46;97.36
69772;BME280;57046;45.988;18.664;2023-05-20T01:09:34;100990.59;;;15.49;99.72
69772;BME280;57046;45.988;18.664;2023-05-20T01:12:15;100980.50;;;15.49;100.00
69772;BME280;57046;45.988;18.664;2023-05-20T01:14:47;100997.88;;;15.57;100.00
69772;BME280;57046;45.988;18.664;2023-05-20T01:17:15;101008.22;;;15.63;100.00
69772;BME280;57046;45.988;18.664;2023-05-20T01:19:41;100986.06;;;15.65;100.00
69772;BME280;57046;45.988;18.664;2023-05-20T01:22:10;101008.53;;;15.62;100.00
69772;BME280;57046;45.988;18.664;2023-05-20T01:24:35;100998.47;;;15.74;99.62
69772;BME280;57046;45.988;18.664;2023-05-20T01:27:01;100993.69;;;15.71;99.30
69772;BME280;57046;45.988;18.664;2023-05-20T01:29:26;100982.31;;;15.69;98.64
69772;BME280;57046;45.988;18.664;2023-05-20T01:31:52;100995.25;;;15.72;98.04
69772;BME280;57046;45.988;18.664;2023-05-20T01:34:19;100986.97;;;15.69;97.89
69772;BME280;57046;45.988;18.664;2023-05-20T01:36:45;100987.09;;;15.72;96.97
69772;BME280;57046;45.988;18.664;2023-05-20T01:39:11;100987.56;;;15.74;96.68
69772;BME280;57046;45.988;18.664;2023-05-20T01:41:38;100986.53;;;15.67;97.69
69772;BME280;57046;45.988;18.664;2023-05-20T01:44:05;100988.34;;;15.63;98.37
69772;BME280;57046;45.988;18.664;2023-05-20T01:46:33;100978.56;;;15.62;98.08
69772;BME280;57046;45.988;18.664;2023-05-20T01:48:59;100970.72;;;15.48;99.23
69772;BME280;57046;45.988;18.664;2023-05-20T01:51:25;100964.63;;;15.51;98.63
69772;BME280;57046;45.988;18.664;2023-05-20T01:53:50;100971.66;;;15.52;98.33
69772;BME280;57046;45.988;18.664;2023-05-20T01:56:16;100975.38;;;15.48;98.88
69772;BME280;57046;45.988;18.664;2023-05-20T01:58:41;100972.44;;;15.41;99.19
69772;BME280;57046;45.988;18.664;2023-05-20T02:01:06;100966.97;;;15.41;99.19
69772;BME280;57046;45.988;18.664;2023-05-20T02:03:32;100972.44;;;15.41;98.88
69772;BME280;57046;45.988;18.664;2023-05-20T02:05:57;100973.09;;;15.38;98.80
69772;BME280;57046;45.988;18.664;2023-05-20T02:08:22;100964.56;;;15.39;98.56
69772;BME280;57046;45.988;18.664;2023-05-20T02:10:48;100971.03;;;15.35;98.47
69772;BME280;57046;45.988;18.664;2023-05-20T02:13:13;100973.66;;;15.43;98.30
69772;BME280;57046;45.988;18.664;2023-05-20T02:15:40;100973.31;;;15.45;97.89
69772;BME280;57046;45.988;18.664;2023-05-20T02:18:06;100974.25;;;15.49;97.57
69772;BME280;57046;45.988;18.664;2023-05-20T02:20:34;100984.47;;;15.52;97.02
69772;BME280;57046;45.988;18.664;2023-05-20T02:23:00;100989.47;;;15.50;97.00
69772;BME280;57046;45.988;18.664;2023-05-20T02:25:25;100967.06;;;15.32;96.40
69772;BME280;57046;45.988;18.664;2023-05-20T02:27:50;100955.13;;;15.24;96.45
69772;BME280;57046;45.988;18.664;2023-05-20T02:30:16;100985.81;;;15.46;95.74
69772;BME280;57046;45.988;18.664;2023-05-20T02:32:41;100990.13;;;15.47;95.62
69772;BME280;57046;45.988;18.664;2023-05-20T02:35:06;100981.38;;;15.41;95.38
69772;BME280;57046;45.988;18.664;2023-05-20T02:37:32;100987.84;;;15.37;95.27
69772;BME280;57046;45.988;18.664;2023-05-20T02:39:57;100988.06;;;15.32;95.48
69772;BME280;57046;45.988;18.664;2023-05-20T02:42:23;100987.13;;;15.27;95.56
69772;BME280;57046;45.988;18.664;2023-05-20T02:44:48;100982.38;;;15.24;95.30
69772;BME280;57046;45.988;18.664;2023-05-20T02:47:13;100985.31;;;15.19;95.37
69772;BME280;57046;45.988;18.664;2023-05-20T02:49:38;100979.19;;;15.10;95.50
69772;BME280;57046;45.988;18.664;2023-05-20T02:52:04;100976.28;;;14.95;96.83
69772;BME280;57046;45.988;18.664;2023-05-20T02:54:29;100978.91;;;14.91;96.43
69772;BME280;57046;45.988;18.664;2023-05-20T02:56:55;100975.47;;;14.82;96.34
69772;BME280;57046;45.988;18.664;2023-05-20T02:59:20;100973.63;;;14.74;95.74
69772;BME280;57046;45.988;18.664;2023-05-20T03:01:45;100976.16;;;14.79;95.76
69772;BME280;57046;45.988;18.664;2023-05-20T03:04:11;100985.81;;;14.89;94.15
69772;BME280;57046;45.988;18.664;2023-05-20T03:06:36;100983.53;;;14.91;94.02
69772;BME280;57046;45.988;18.664;2023-05-20T03:09:01;100995.44;;;14.86;94.43
69772;BME280;57046;45.988;18.664;2023-05-20T03:11:27;100994.16;;;14.84;94.45
69772;BME280;57046;45.988;18.664;2023-05-20T03:13:52;100991.94;;;14.86;94.20
69772;BME280;57046;45.988;18.664;2023-05-20T03:16:17;100982.03;;;14.81;93.81
69772;BME280;57046;45.988;18.664;2023-05-20T03:18:43;100990.06;;;14.77;93.40
69772;BME280;57046;45.988;18.664;2023-05-20T03:21:08;101006.06;;;14.79;93.53
69772;BME280;57046;45.988;18.664;2023-05-20T03:23:34;101018.88;;;14.78;93.43
69772;BME280;57046;45.988;18.664;2023-05-20T03:25:59;101015.38;;;14.78;93.52
69772;BME280;57046;45.988;18.664;2023-05-20T03:28:25;101020.22;;;14.72;93.74
69772;BME280;57046;45.988;18.664;2023-05-20T03:30:50;101029.19;;;14.73;93.77
69772;BME280;57046;45.988;18.664;2023-05-20T03:33:15;101031.78;;;14.69;94.58
69772;BME280;57046;45.988;18.664;2023-05-20T03:35:41;101027.09;;;14.70;94.71
69772;BME280;57046;45.988;18.664;2023-05-20T03:38:06;101032.75;;;14.65;95.25
69772;BME280;57046;45.988;18.664;2023-05-20T03:40:31;101038.19;;;14.65;95.15
69772;BME280;57046;45.988;18.664;2023-05-20T03:42:57;101044.09;;;14.67;94.56
69772;BME280;57046;45.988;18.664;2023-05-20T03:45:22;101022.41;;;14.58;95.94
69772;BME280;57046;45.988;18.664;2023-05-20T03:47:47;101030.09;;;14.56;97.47
69772;BME280;57046;45.988;18.664;2023-05-20T03:50:13;101026.78;;;14.51;98.52
69772;BME280;57046;45.988;18.664;2023-05-20T03:52:38;101030.75;;;14.53;99.66
69772;BME280;57046;45.988;18.664;2023-05-20T03:55:04;101033.63;;;14.57;100.00
69772;BME280;57046;45.988;18.664;2023-05-20T03:57:29;101031.50;;;14.62;100.00
69772;BME280;57046;45.988;18.664;2023-05-20T03:59:55;101028.25;;;14.69;100.00
69772;BME280;57046;45.988;18.664;2023-05-20T04:02:20;101037.41;;;14.64;100.00
69772;BME280;57046;45.988;18.664;2023-05-20T04:04:46;101034.00;;;14.67;100.00
69772;BME280;57046;45.988;18.664;2023-05-20T04:07:11;101022.81;;;14.69;100.00
69772;BME280;57046;45.988;18.664;2023-05-20T04:09:37;101035.25;;;14.70;100.00
69772;BME280;57046;45.988;18.664;2023-05-20T04:12:04;101020.13;;;14.81;100.00
69772;BME280;57046;45.988;18.664;2023-05-20T04:14:29;101033.97;;;14.76;100.00
69772;BME280;57046;45.988;18.664;2023-05-20T04:16:55;101027.97;;;14.83;100.00
69772;BME280;57046;45.988;18.664;2023-05-20T04:19:20;101025.44;;;14.77;100.00
69772;BME280;57046;45.988;18.664;2023-05-20T04:21:45;101032.94;;;14.81;100.00
69772;BME280;57046;45.988;18.664;2023-05-20T04:24:11;101045.69;;;14.89;100.00
69772;BME280;57046;45.988;18.664;2023-05-20T04:26:37;101049.09;;;14.98;100.00
69772;BME280;57046;45.988;18.664;2023-05-20T04:29:02;101049.16;;;15.10;100.00
69772;BME280;57046;45.988;18.664;2023-05-20T04:31:27;101057.25;;;15.18;100.00
69772;BME280;57046;45.988;18.664;2023-05-20T04:33:53;101051.59;;;15.23;100.00
69772;BME280;57046;45.988;18.664;2023-05-20T04:36:18;101053.41;;;15.32;100.00
69772;BME280;57046;45.988;18.664;2023-05-20T04:38:43;101051.38;;;15.28;100.00
69772;BME280;57046;45.988;18.664;2023-05-20T04:41:09;101055.81;;;15.33;100.00
69772;BME280;57046;45.988;18.664;2023-05-20T04:43:35;101056.63;;;15.34;100.00
69772;BME280;57046;45.988;18.664;2023-05-20T04:46:00;101052.53;;;15.40;100.00
69772;BME280;57046;45.988;18.664;2023-05-20T04:48:26;101050.72;;;15.44;100.00
69772;BME280;57046;45.988;18.664;2023-05-20T04:50:51;101067.25;;;15.59;100.00
69772;BME280;57046;45.988;18.664;2023-05-20T04:53:20;101065.31;;;15.72;100.00
69772;BME280;57046;45.988;18.664;2023-05-20T04:55:45;101049.69;;;15.81;100.00
69772;BME280;57046;45.988;18.664;2023-05-20T04:58:11;101042.84;;;15.87;100.00
69772;BME280;57046;45.988;18.664;2023-05-20T05:00:36;101043.53;;;15.96;100.00
69772;BME280;57046;45.988;18.664;2023-05-20T05:03:01;101046.72;;;15.98;100.00
69772;BME280;57046;45.988;18.664;2023-05-20T05:05:27;101039.22;;;16.07;100.00
69772;BME280;57046;45.988;18.664;2023-05-20T05:07:52;101039.31;;;16.11;100.00
69772;BME280;57046;45.988;18.664;2023-05-20T05:10:18;101037.38;;;16.23;100.00
69772;BME280;57046;45.988;18.664;2023-05-20T05:12:43;101026.03;;;16.21;100.00
69772;BME280;57046;45.988;18.664;2023-05-20T05:15:09;101024.63;;;16.27;100.00
69772;BME280;57046;45.988;18.664;2023-05-20T05:17:34;101006.81;;;16.18;100.00
69772;BME280;57046;45.988;18.664;2023-05-20T05:19:59;101013.72;;;16.40;100.00
69772;BME280;57046;45.988;18.664;2023-05-20T05:22:25;101030.72;;;16.49;100.00
69772;BME280;57046;45.988;18.664;2023-05-20T05:24:50;101026.31;;;16.56;100.00
69772;BME280;57046;45.988;18.664;2023-05-20T05:27:15;101037.44;;;16.63;100.00
69772;BME280;57046;45.988;18.664;2023-05-20T05:29:41;101032.84;;;16.67;100.00
69772;BME280;57046;45.988;18.664;2023-05-20T05:32:06;101034.84;;;16.83;100.00
69772;BME280;57046;45.988;18.664;2023-05-20T05:34:32;101045.19;;;16.89;100.00
69772;BME280;57046;45.988;18.664;2023-05-20T05:36:57;101030.13;;;16.95;100.00
69772;BME280;57046;45.988;18.664;2023-05-20T05:39:22;101025.66;;;17.03;100.00
69772;BME280;57046;45.988;18.664;2023-05-20T05:41:48;101023.47;;;17.08;100.00
69772;BME280;57046;45.988;18.664;2023-05-20T05:44:13;101031.06;;;17.15;100.00
69772;BME280;57046;45.988;18.664;2023-05-20T05:46:39;101026.34;;;17.27;100.00
69772;BME280;57046;45.988;18.664;2023-05-20T05:49:04;101027.84;;;17.41;100.00
69772;BME280;57046;45.988;18.664;2023-05-20T05:51:29;101022.75;;;17.55;100.00
69772;BME280;57046;45.988;18.664;2023-05-20T05:53:55;101024.25;;;17.68;100.00
69772;BME280;57046;45.988;18.664;2023-05-20T05:56:20;101019.41;;;17.77;100.00
69772;BME280;57046;45.988;18.664;2023-05-20T05:58:45;101016.94;;;17.72;100.00
69772;BME280;57046;45.988;18.664;2023-05-20T06:01:11;101018.34;;;17.82;100.00
69772;BME280;57046;45.988;18.664;2023-05-20T06:03:36;100996.91;;;17.84;100.00
69772;BME280;57046;45.988;18.664;2023-05-20T06:06:01;101015.22;;;17.99;100.00
69772;BME280;57046;45.988;18.664;2023-05-20T06:08:27;101013.81;;;18.05;100.00
69772;BME280;57046;45.988;18.664;2023-05-20T06:10:52;100995.00;;;18.03;100.00
69772;BME280;57046;45.988;18.664;2023-05-20T06:13:18;101014.03;;;18.15;100.00
69772;BME280;57046;45.988;18.664;2023-05-20T06:15:44;101033.94;;;18.31;100.00
69772;BME280;57046;45.988;18.664;2023-05-20T06:18:09;101038.13;;;18.45;100.00
69772;BME280;57046;45.988;18.664;2023-05-20T06:20:35;101032.50;;;18.53;100.00
69772;BME280;57046;45.988;18.664;2023-05-20T06:23:00;101037.41;;;18.63;100.00
69772;BME280;57046;45.988;18.664;2023-05-20T06:25:26;101037.25;;;18.75;100.00
69772;BME280;57046;45.988;18.664;2023-05-20T06:27:52;101027.09;;;18.76;100.00
69772;BME280;57046;45.988;18.664;2023-05-20T06:30:18;101035.16;;;18.88;98.46
69772;BME280;57046;45.988;18.664;2023-05-20T06:32:44;101016.25;;;19.02;99.59
69772;BME280;57046;45.988;18.664;2023-05-20T06:35:10;101006.53;;;19.05;98.02
69772;BME280;57046;45.988;18.664;2023-05-20T06:37:36;101018.47;;;19.16;96.82
69772;BME280;57046;45.988;18.664;2023-05-20T06:40:02;101020.91;;;19.21;95.16
69772;BME280;57046;45.988;18.664;2023-05-20T06:42:27;101020.31;;;19.31;95.60
69772;BME280;57046;45.988;18.664;2023-05-20T06:44:53;101022.72;;;19.36;94.36
69772;BME280;57046;45.988;18.664;2023-05-20T06:47:19;101011.78;;;19.36;93.25
69772;BME280;57046;45.988;18.664;2023-05-20T06:49:45;101010.44;;;19.46;93.37
69772;BME280;57046;45.988;18.664;2023-05-20T06:52:10;101009.06;;;19.59;94.25
69772;BME280;57046;45.988;18.664;2023-05-20T06:54:37;100985.44;;;19.51;94.42
69772;BME280;57046;45.988;18.664;2023-05-20T06:57:03;101001.72;;;19.66;93.41
69772;BME280;57046;45.988;18.664;2023-05-20T06:59:29;101006.25;;;19.78;93.40
69772;BME280;57046;45.988;18.664;2023-05-20T07:01:54;101005.13;;;19.83;91.85
69772;BME280;57046;45.988;18.664;2023-05-20T07:04:20;100982.75;;;19.80;91.61
69772;BME280;57046;45.988;18.664;2023-05-20T07:06:45;101002.34;;;20.05;92.31
69772;BME280;57046;45.988;18.664;2023-05-20T07:09:11;101000.00;;;20.07;89.63
69772;BME280;57046;45.988;18.664;2023-05-20T07:11:37;100988.81;;;20.19;88.78
69772;BME280;57046;45.988;18.664;2023-05-20T07:14:02;100987.03;;;20.30;89.41
69772;BME280;57046;45.988;18.664;2023-05-20T07:16:28;100956.22;;;20.18;88.78
69772;BME280;57046;45.988;18.664;2023-05-20T07:18:54;100979.00;;;20.48;88.89
69772;BME280;57046;45.988;18.664;2023-05-20T07:21:19;100983.91;;;20.65;90.23
69772;BME280;57046;45.988;18.664;2023-05-20T07:23:45;100986.38;;;20.74;90.50
69772;BME280;57046;45.988;18.664;2023-05-20T07:26:11;100983.09;;;20.95;88.39
69772;BME280;57046;45.988;18.664;2023-05-20T07:28:37;100981.25;;;21.09;87.42
69772;BME280;57046;45.988;18.664;2023-05-20T07:31:03;100993.91;;;21.14;84.56
69772;BME280;57046;45.988;18.664;2023-05-20T07:33:29;100984.53;;;21.18;85.33
69772;BME280;57046;45.988;18.664;2023-05-20T07:35:55;100986.13;;;21.23;85.70
69772;BME280;57046;45.988;18.664;2023-05-20T07:38:20;100980.69;;;21.30;88.49
69772;BME280;57046;45.988;18.664;2023-05-20T07:40:46;100974.53;;;21.44;88.40
69772;BME280;57046;45.988;18.664;2023-05-20T07:43:13;100971.50;;;21.56;85.66
69772;BME280;57046;45.988;18.664;2023-05-20T07:45:39;100960.63;;;21.73;83.19
69772;BME280;57046;45.988;18.664;2023-05-20T07:48:05;100962.66;;;21.83;81.23
69772;BME280;57046;45.988;18.664;2023-05-20T07:50:31;100955.19;;;21.84;81.06
69772;BME280;57046;45.988;18.664;2023-05-20T07:52:56;100963.06;;;21.89;81.40
69772;BME280;57046;45.988;18.664;2023-05-20T07:55:22;100959.63;;;22.03;83.83
69772;BME280;57046;45.988;18.664;2023-05-20T07:57:48;100928.50;;;21.92;81.38
69772;BME280;57046;45.988;18.664;2023-05-20T08:00:14;100953.41;;;22.13;81.13
69772;BME280;57046;45.988;18.664;2023-05-20T08:02:39;100952.25;;;22.17;80.02
69772;BME280;57046;45.988;18.664;2023-05-20T08:05:05;100958.63;;;22.39;79.27
69772;BME280;57046;45.988;18.664;2023-05-20T08:07:31;100955.53;;;22.51;77.30
69772;BME280;57046;45.988;18.664;2023-05-20T08:09:56;100939.03;;;22.58;75.93
69772;BME280;57046;45.988;18.664;2023-05-20T08:12:22;100945.78;;;22.75;75.19
69772;BME280;57046;45.988;18.664;2023-05-20T08:14:48;100927.69;;;22.77;74.09
69772;BME280;57046;45.988;18.664;2023-05-20T08:17:13;100939.94;;;22.98;73.00
69772;BME280;57046;45.988;18.664;2023-05-20T08:19:39;100937.16;;;23.01;71.14
69772;BME280;57046;45.988;18.664;2023-05-20T08:22:05;100932.44;;;23.05;71.27
69772;BME280;57046;45.988;18.664;2023-05-20T08:24:30;100932.03;;;23.07;70.03
69772;BME280;57046;45.988;18.664;2023-05-20T08:26:56;100926.16;;;23.19;71.72
69772;BME280;57046;45.988;18.664;2023-05-20T08:29:22;100936.41;;;23.32;71.42
69772;BME280;57046;45.988;18.664;2023-05-20T08:31:47;100932.84;;;23.39;69.87
69772;BME280;57046;45.988;18.664;2023-05-20T08:34:13;100929.72;;;23.41;70.58
69772;BME280;57046;45.988;18.664;2023-05-20T08:36:38;100939.94;;;23.58;72.38
69772;BME280;57046;45.988;18.664;2023-05-20T08:39:04;100930.88;;;23.68;70.76
69772;BME280;57046;45.988;18.664;2023-05-20T08:41:30;100936.78;;;23.77;70.25
69772;BME280;57046;45.988;18.664;2023-05-20T08:43:56;100934.41;;;23.82;69.04
69772;BME280;57046;45.988;18.664;2023-05-20T08:46:24;100933.19;;;23.98;70.13
69772;BME280;57046;45.988;18.664;2023-05-20T08:48:50;100929.63;;;23.97;65.92
69772;BME280;57046;45.988;18.664;2023-05-20T08:51:17;100903.22;;;23.89;68.28
69772;BME280;57046;45.988;18.664;2023-05-20T08:53:45;100917.75;;;24.18;69.13
69772;BME280;57046;45.988;18.664;2023-05-20T08:56:12;100915.34;;;24.23;70.68
69772;BME280;57046;45.988;18.664;2023-05-20T08:58:38;100916.88;;;24.39;66.04
69772;BME280;57046;45.988;18.664;2023-05-20T09:01:05;100914.09;;;24.42;68.72
69772;BME280;57046;45.988;18.664;2023-05-20T09:03:31;100915.25;;;24.45;64.75
69772;BME280;57046;45.988;18.664;2023-05-20T09:06:07;100917.91;;;24.66;68.29
69772;BME280;57046;45.988;18.664;2023-05-20T09:08:33;100920.22;;;24.74;66.67
69772;BME280;57046;45.988;18.664;2023-05-20T09:10:59;100917.44;;;24.74;65.05
69772;BME280;57046;45.988;18.664;2023-05-20T09:13:26;100904.69;;;24.95;67.89
69772;BME280;57046;45.988;18.664;2023-05-20T09:15:52;100918.47;;;25.02;64.29
69772;BME280;57046;45.988;18.664;2023-05-20T09:18:18;100910.13;;;25.09;63.04
69772;BME280;57046;45.988;18.664;2023-05-20T09:20:46;100911.66;;;25.17;64.07
69772;BME280;57046;45.988;18.664;2023-05-20T09:23:12;100907.72;;;25.11;64.42
69772;BME280;57046;45.988;18.664;2023-05-20T09:25:37;100909.22;;;25.22;62.17
69772;BME280;57046;45.988;18.664;2023-05-20T09:28:05;100903.59;;;25.33;63.30
69772;BME280;57046;45.988;18.664;2023-05-20T09:30:31;100910.25;;;25.39;59.24
69772;BME280;57046;45.988;18.664;2023-05-20T09:32:58;100903.03;;;25.52;61.42
69772;BME280;57046;45.988;18.664;2023-05-20T09:35:26;100889.09;;;25.63;61.13
69772;BME280;57046;45.988;18.664;2023-05-20T09:37:56;100885.88;;;25.68;60.59
69772;BME280;57046;45.988;18.664;2023-05-20T09:40:26;100885.88;;;25.68;58.35
69772;BME280;57046;45.988;18.664;2023-05-20T09:43:02;100884.59;;;25.76;57.28
69772;BME280;57046;45.988;18.664;2023-05-20T09:45:29;100877.06;;;25.76;55.04
69772;BME280;57046;45.988;18.664;2023-05-20T09:47:55;100878.56;;;25.85;58.83
69772;BME280;57046;45.988;18.664;2023-05-20T09:50:23;100877.97;;;26.00;58.03
69772;BME280;57046;45.988;18.664;2023-05-20T09:52:50;100871.19;;;26.05;55.23
69772;BME280;57046;45.988;18.664;2023-05-20T09:55:22;100877.38;;;26.19;57.71
69772;BME280;57046;45.988;18.664;2023-05-20T09:57:48;100869.47;;;26.18;55.21
69772;BME280;57046;45.988;18.664;2023-05-20T10:00:14;100879.59;;;26.31;55.84
69772;BME280;57046;45.988;18.664;2023-05-20T10:02:43;100891.81;;;26.34;54.20
69772;BME280;57046;45.988;18.664;2023-05-20T10:05:14;100872.69;;;26.43;54.29
69772;BME280;57046;45.988;18.664;2023-05-20T10:07:54;100878.59;;;26.45;54.22
69772;BME280;57046;45.988;18.664;2023-05-20T10:19:02;100874.94;;;26.78;52.92
69772;BME280;57046;45.988;18.664;2023-05-20T10:21:31;100873.78;;;26.76;51.52
69772;BME280;57046;45.988;18.664;2023-05-20T10:24:05;100873.94;;;26.92;52.29
69772;BME280;57046;45.988;18.664;2023-05-20T10:26:39;100870.34;;;26.95;50.10
69772;BME280;57046;45.988;18.664;2023-05-20T10:29:15;100869.13;;;26.96;49.83
69772;BME280;57046;45.988;18.664;2023-05-20T10:31:48;100831.66;;;26.85;51.37
69772;BME280;57046;45.988;18.664;2023-05-20T10:34:15;100872.53;;;27.07;49.81
69772;BME280;57046;45.988;18.664;2023-05-20T10:39:27;100864.31;;;27.23;49.50
69772;BME280;57046;45.988;18.664;2023-05-20T10:42:10;100887.06;;;27.38;51.14
69772;BME280;57046;45.988;18.664;2023-05-20T10:44:45;100877.84;;;27.45;49.57
69772;BME280;57046;45.988;18.664;2023-05-20T10:47:11;100864.41;;;27.40;47.55
69772;BME280;57046;45.988;18.664;2023-05-20T10:49:43;100860.75;;;27.46;49.94
69772;BME280;57046;45.988;18.664;2023-05-20T10:52:09;100867.69;;;27.58;48.10
69772;BME280;57046;45.988;18.664;2023-05-20T10:54:36;100866.41;;;27.62;49.90
69772;BME280;57046;45.988;18.664;2023-05-20T10:57:07;100860.06;;;27.62;50.44
69772;BME280;57046;45.988;18.664;2023-05-20T10:59:36;100864.44;;;27.59;47.75
69772;BME280;57046;45.988;18.664;2023-05-20T11:02:02;100846.44;;;27.48;48.35
69772;BME280;57046;45.988;18.664;2023-05-20T11:04:28;100861.91;;;27.68;49.91
69772;BME280;57046;45.988;18.664;2023-05-20T11:06:54;100859.06;;;27.72;45.52
69772;BME280;57046;45.988;18.664;2023-05-20T11:09:19;100859.13;;;27.68;47.32
69772;BME280;57046;45.988;18.664;2023-05-20T11:11:45;100854.44;;;27.65;47.27
69772;BME280;57046;45.988;18.664;2023-05-20T11:14:11;100858.28;;;27.71;46.74
69772;BME280;57046;45.988;18.664;2023-05-20T11:16:36;100861.25;;;27.80;48.49
69772;BME280;57046;45.988;18.664;2023-05-20T11:19:01;100858.63;;;27.93;46.29
69772;BME280;57046;45.988;18.664;2023-05-20T11:21:27;100850.56;;;27.99;44.63
69772;BME280;57046;45.988;18.664;2023-05-20T11:23:52;100846.53;;;28.03;45.38
69772;BME280;57046;45.988;18.664;2023-05-20T11:26:17;100847.44;;;28.16;45.23
69772;BME280;57046;45.988;18.664;2023-05-20T11:28:44;100838.25;;;28.19;44.51
69772;BME280;57046;45.988;18.664;2023-05-20T11:31:09;100852.16;;;28.19;45.24
69772;BME280;57046;45.988;18.664;2023-05-20T11:33:35;100849.47;;;28.32;49.09
69772;BME280;57046;45.988;18.664;2023-05-20T11:36:05;100840.34;;;28.31;45.25
69772;BME280;57046;45.988;18.664;2023-05-20T11:38:30;100845.16;;;28.47;46.10
69772;BME280;57046;45.988;18.664;2023-05-20T11:40:56;100837.50;;;28.51;43.97
69772;BME280;57046;45.988;18.664;2023-05-20T11:43:22;100823.88;;;28.57;44.46
69772;BME280;57046;45.988;18.664;2023-05-20T11:45:55;100835.38;;;28.75;45.96
69772;BME280;57046;45.988;18.664;2023-05-20T11:48:22;100815.63;;;28.53;45.61
69772;BME280;57046;45.988;18.664;2023-05-20T11:50:48;100843.53;;;28.66;43.92
69772;BME280;57046;45.988;18.664;2023-05-20T11:53:17;100833.38;;;28.75;45.49
69772;BME280;57046;45.988;18.664;2023-05-20T11:55:56;100823.81;;;28.76;44.43
69772;BME280;57046;45.988;18.664;2023-05-20T11:58:23;100833.56;;;28.85;45.64
69772;BME280;57046;45.988;18.664;2023-05-20T12:00:49;100819.47;;;28.92;45.92
69772;BME280;57046;45.988;18.664;2023-05-20T12:03:15;100826.84;;;28.98;45.62
69772;BME280;57046;45.988;18.664;2023-05-20T12:05:40;100821.47;;;28.91;45.16
69772;BME280;57046;45.988;18.664;2023-05-20T12:08:06;100814.66;;;28.92;44.86
69772;BME280;57046;45.988;18.664;2023-05-20T12:10:31;100804.84;;;29.04;48.50
69772;BME280;57046;45.988;18.664;2023-05-20T12:12:57;100792.91;;;29.03;44.35
69772;BME280;57046;45.988;18.664;2023-05-20T12:15:23;100802.44;;;29.35;45.57
69772;BME280;57046;45.988;18.664;2023-05-20T12:17:52;100805.47;;;29.40;45.34
69772;BME280;57046;45.988;18.664;2023-05-20T12:20:20;100812.91;;;29.14;43.49
69772;BME280;57046;45.988;18.664;2023-05-20T12:22:46;100801.88;;;29.40;43.99
69772;BME280;57046;45.988;18.664;2023-05-20T12:25:14;100805.03;;;29.42;43.62
69772;BME280;57046;45.988;18.664;2023-05-20T12:27:43;100791.53;;;29.40;43.38
69772;BME280;57046;45.988;18.664;2023-05-20T12:30:08;100793.88;;;29.42;46.26
69772;BME280;57046;45.988;18.664;2023-05-20T12:32:37;100792.50;;;29.34;44.48
69772;BME280;57046;45.988;18.664;2023-05-20T12:35:03;100791.06;;;29.29;43.91
69772;BME280;57046;45.988;18.664;2023-05-20T12:37:29;100785.75;;;29.18;43.38
69772;BME280;57046;45.988;18.664;2023-05-20T12:39:54;100777.78;;;29.04;43.43
69772;BME280;57046;45.988;18.664;2023-05-20T12:42:20;100787.25;;;29.07;43.23
69772;BME280;57046;45.988;18.664;2023-05-20T12:44:45;100778.47;;;29.08;43.35